Time;durP1;ratioP1;P1;durP2;ratioP2;P2;SDS_P1;SDS_P2;PMS_P1;PMS_P2;Temp;Humidity;BMP_temperature;BMP_pressure;BME280_temperature;BME280_humidity;BME280_pressure;Samples;Min_cycle;Max_cycle;Signal;HPM_P1;HPM_P2
2022/04/23 00:02:03;;;;;;;18.15;12.20;;;9.60;99.90;;;;;;5048421;28;20132;-87
2022/04/23 00:04:30;;;;;;;15.25;11.70;;;9.60;99.90;;;;;;5048414;28;20579;-87
2022/04/23 00:06:59;;;;;;;17.48;12.85;;;9.60;99.90;;;;;;5015373;28;20532;-88
2022/04/23 00:09:25;;;;;;;16.52;12.35;;;9.50;99.90;;;;;;5026333;28;20071;-88
2022/04/23 00:11:55;;;;;;;16.70;12.18;;;9.50;99.90;;;;;;5046444;28;20398;-88
2022/04/23 00:14:21;;;;;;;16.75;12.70;;;9.60;99.90;;;;;;5048293;28;20032;-87
2022/04/23 00:16:49;;;;;;;17.90;12.75;;;9.40;99.90;;;;;;5062699;28;20097;-87
2022/04/23 00:19:14;;;;;;;17.10;12.90;;;9.30;99.90;;;;;;5065142;28;20497;-87
2022/04/23 00:21:40;;;;;;;21.25;13.10;;;9.30;99.90;;;;;;5033963;28;20081;-88
2022/04/23 00:24:06;;;;;;;18.65;13.25;;;9.30;99.90;;;;;;5015602;28;20135;-88
2022/04/23 00:26:32;;;;;;;19.00;13.40;;;9.30;99.90;;;;;;5014568;28;20036;-87
2022/04/23 00:28:57;;;;;;;18.42;12.82;;;9.40;99.90;;;;;;5014595;28;20036;-87
2022/04/23 00:31:24;;;;;;;18.80;13.43;;;9.30;99.90;;;;;;5047131;28;20093;-87
2022/04/23 00:33:50;;;;;;;17.40;13.00;;;9.30;99.90;;;;;;5030869;28;20036;-87
2022/04/23 00:36:16;;;;;;;17.95;13.93;;;9.30;99.90;;;;;;5048170;28;21069;-87
2022/04/23 00:38:42;;;;;;;18.40;13.88;;;9.30;99.90;;;;;;5030814;28;20047;-87
2022/04/23 00:43:53;;;;;;;19.00;13.20;;;9.30;99.90;;;;;;5049956;28;20114;-87
2022/04/23 00:46:19;;;;;;;19.15;13.80;;;9.20;99.90;;;;;;5031246;28;20041;-87
2022/04/23 00:48:45;;;;;;;19.10;13.43;;;9.30;99.90;;;;;;5044532;28;20080;-87
2022/04/23 00:51:12;;;;;;;17.05;13.07;;;9.20;99.90;;;;;;5047011;28;20554;-87
2022/04/23 00:53:38;;;;;;;19.60;14.63;;;9.80;99.90;;;;;;5047228;28;20513;-87
2022/04/23 00:56:05;;;;;;;19.05;13.63;;;9.20;99.90;;;;;;5031266;28;20077;-86
2022/04/23 00:58:31;;;;;;;16.83;13.60;;;9.10;99.90;;;;;;5047529;28;20045;-86
2022/04/23 01:00:57;;;;;;;19.85;14.52;;;9.10;99.90;;;;;;5030748;28;20047;-87
2022/04/23 01:03:23;;;;;;;18.02;14.02;;;9.10;99.90;;;;;;5065889;28;20397;-86
2022/04/23 01:05:49;;;;;;;17.63;14.38;;;9.00;99.90;;;;;;5051282;28;20071;-87
2022/04/23 01:08:17;;;;;;;17.60;14.98;;;9.10;99.90;;;;;;5051483;28;20090;-87
2022/04/23 01:10:48;;;;;;;17.67;13.25;;;9.00;99.90;;;;;;5058134;28;20037;-87
2022/04/23 01:13:14;;;;;;;18.15;14.40;;;9.00;99.90;;;;;;5057444;28;20037;-87
2022/04/23 01:16:01;;;;;;;17.13;13.55;;;9.00;99.90;;;;;;5057860;28;20142;-87
2022/04/23 01:18:28;;;;;;;17.17;13.38;;;9.00;99.90;;;;;;5072687;28;20079;-87
2022/04/23 01:20:59;;;;;;;22.58;14.52;;;9.30;99.90;;;;;;5057191;28;20037;-87
2022/04/23 01:23:25;;;;;;;20.73;14.23;;;8.90;99.90;;;;;;5056979;28;20501;-87
2022/04/23 01:25:53;;;;;;;16.42;13.18;;;8.80;99.90;;;;;;5057582;28;20044;-87
2022/04/23 01:28:23;;;;;;;18.90;14.65;;;8.80;99.90;;;;;;5040027;28;20060;-88
2022/04/23 01:30:50;;;;;;;19.35;14.25;;;8.70;99.90;;;;;;5070861;28;20086;-88
2022/04/23 01:33:17;;;;;;;17.40;13.95;;;8.90;99.90;;;;;;5060226;28;20187;-87
2022/04/23 01:35:43;;;;;;;16.80;13.25;;;8.70;99.90;;;;;;5061718;28;20170;-87
2022/04/23 01:38:10;;;;;;;17.45;14.00;;;8.60;99.90;;;;;;5096353;28;20036;-88
2022/04/23 01:40:36;;;;;;;20.60;15.02;;;8.60;99.90;;;;;;5063372;28;20255;-88
2022/04/23 01:43:01;;;;;;;17.60;13.82;;;8.60;99.90;;;;;;5067088;28;20486;-87
2022/04/23 01:45:27;;;;;;;19.05;13.02;;;8.60;99.90;;;;;;5050152;28;20608;-88
2022/04/23 01:47:53;;;;;;;16.33;13.40;;;8.60;99.90;;;;;;5052258;28;20425;-87
2022/04/23 01:50:19;;;;;;;18.98;14.55;;;8.60;99.90;;;;;;5050721;28;20044;-87
2022/04/23 01:52:44;;;;;;;19.15;13.77;;;8.60;99.90;;;;;;5034190;28;20092;-87
2022/04/23 01:55:10;;;;;;;22.92;14.80;;;8.50;99.90;;;;;;5037490;28;20039;-87
2022/04/23 01:57:36;;;;;;;17.45;14.10;;;8.50;99.90;;;;;;5050865;28;20211;-87
2022/04/23 02:00:08;;;;;;;19.00;14.52;;;8.50;99.90;;;;;;5033314;28;20049;-87
2022/04/23 02:02:36;;;;;;;17.58;13.88;;;8.50;99.90;;;;;;5035258;28;20127;-87
2022/04/23 02:05:03;;;;;;;17.73;13.77;;;8.40;99.90;;;;;;5047438;28;20389;-87
2022/04/23 02:07:29;;;;;;;17.65;13.90;;;8.40;99.90;;;;;;5032821;28;20032;-88
2022/04/23 02:09:55;;;;;;;17.88;13.25;;;8.30;99.90;;;;;;5050828;28;20051;-88
2022/04/23 02:12:20;;;;;;;17.90;13.05;;;8.30;99.90;;;;;;5049260;28;20040;-87
2022/04/23 02:14:48;;;;;;;17.08;13.88;;;8.20;99.90;;;;;;5048014;28;20036;-87
2022/04/23 02:17:14;;;;;;;16.20;13.25;;;8.20;99.90;;;;;;5049687;28;20037;-87
2022/04/23 02:19:40;;;;;;;15.02;12.88;;;8.20;99.90;;;;;;5042633;28;20495;-86
2022/04/23 02:22:06;;;;;;;16.95;12.73;;;8.20;99.90;;;;;;5051924;28;20036;-87
2022/04/23 02:24:31;;;;;;;19.70;13.07;;;8.10;99.90;;;;;;5034257;28;20042;-87
2022/04/23 02:26:57;;;;;;;16.70;12.80;;;8.00;99.90;;;;;;5033345;28;20056;-87
2022/04/23 02:29:23;;;;;;;18.00;13.52;;;7.90;99.90;;;;;;5065078;28;20056;-87
2022/04/23 02:31:49;;;;;;;17.52;12.40;;;7.90;99.90;;;;;;5016687;28;20033;-87
2022/04/23 02:34:14;;;;;;;14.90;11.65;;;7.80;99.90;;;;;;5047929;28;20048;-87
2022/04/23 02:36:40;;;;;;;16.63;13.32;;;7.80;99.90;;;;;;5039373;28;20457;-87
2022/04/23 02:39:06;;;;;;;16.38;12.68;;;7.80;99.90;;;;;;5030501;28;20063;-87
2022/04/23 02:41:31;;;;;;;15.95;12.07;;;7.80;99.90;;;;;;5057728;28;20036;-87
2022/04/23 02:43:57;;;;;;;18.60;12.90;;;7.80;99.90;;;;;;5055822;28;20041;-87
2022/04/23 02:46:24;;;;;;;17.50;12.30;;;8.10;99.90;;;;;;5033954;28;20485;-87
2022/04/23 02:48:50;;;;;;;16.23;12.82;;;7.90;99.90;;;;;;5064797;28;20036;-87
2022/04/23 02:51:16;;;;;;;16.48;12.90;;;8.20;99.90;;;;;;5052704;28;20048;-88
2022/04/23 02:53:45;;;;;;;17.90;12.75;;;8.00;99.90;;;;;;5052833;28;20036;-88
2022/04/23 02:56:13;;;;;;;18.42;13.18;;;8.10;99.90;;;;;;5035971;28;20116;-87
2022/04/23 02:58:42;;;;;;;19.10;12.02;;;8.10;99.90;;;;;;5049969;28;20044;-87
2022/04/23 03:01:10;;;;;;;16.67;12.93;;;8.10;99.90;;;;;;5034138;28;20063;-88
2022/04/23 03:03:43;;;;;;;17.35;12.57;;;8.20;99.90;;;;;;5020786;28;20123;-88
2022/04/23 03:06:09;;;;;;;16.77;13.48;;;8.10;99.90;;;;;;5065180;28;20051;-87
2022/04/23 03:08:38;;;;;;;16.33;12.60;;;8.10;99.90;;;;;;5029022;28;20067;-87
2022/04/23 03:11:07;;;;;;;17.88;13.02;;;8.20;99.90;;;;;;5061367;28;20044;-87
2022/04/23 03:13:35;;;;;;;15.18;12.25;;;8.20;99.90;;;;;;5062331;28;20037;-88
2022/04/23 03:16:01;;;;;;;19.38;12.68;;;8.50;99.90;;;;;;5069772;28;20071;-87
2022/04/23 03:18:27;;;;;;;17.35;12.20;;;8.20;99.90;;;;;;5063728;28;20128;-87
2022/04/23 03:20:55;;;;;;;15.82;12.48;;;8.10;99.90;;;;;;5042800;28;20032;-88
2022/04/23 03:23:21;;;;;;;16.23;12.57;;;8.20;99.90;;;;;;5055064;28;20582;-88
2022/04/23 03:25:46;;;;;;;22.20;12.80;;;8.20;99.90;;;;;;5053594;28;20067;-88
2022/04/23 03:28:14;;;;;;;17.23;12.32;;;8.10;99.90;;;;;;5037645;28;20057;-88
2022/04/23 03:30:41;;;;;;;17.92;12.30;;;8.10;99.90;;;;;;5069994;28;20072;-87
2022/04/23 03:33:07;;;;;;;18.75;12.60;;;8.10;99.90;;;;;;5033385;28;20075;-88
2022/04/23 03:35:33;;;;;;;14.88;11.73;;;8.00;99.90;;;;;;5035462;28;20068;-88
2022/04/23 03:37:59;;;;;;;15.32;11.32;;;8.00;99.90;;;;;;5034898;28;20048;-87
2022/04/23 03:40:24;;;;;;;14.25;11.57;;;8.00;99.90;;;;;;5031861;28;20075;-87
2022/04/23 03:42:50;;;;;;;17.00;11.77;;;8.00;99.90;;;;;;5048959;28;20052;-87
2022/04/23 03:45:18;;;;;;;14.80;11.43;;;8.10;99.90;;;;;;5048313;28;20064;-88
2022/04/23 03:47:46;;;;;;;17.95;11.63;;;7.80;99.90;;;;;;5048286;28;20543;-87
2022/04/23 03:50:12;;;;;;;12.90;10.80;;;7.80;99.90;;;;;;5048625;28;20466;-87
2022/04/23 03:52:38;;;;;;;14.40;10.98;;;7.70;99.90;;;;;;5047392;28;20040;-88
2022/04/23 03:55:04;;;;;;;13.68;10.88;;;7.70;99.90;;;;;;5049134;28;20634;-87
2022/04/23 03:57:31;;;;;;;13.75;11.05;;;7.70;99.90;;;;;;5032475;28;20041;-87
2022/04/23 03:59:56;;;;;;;14.82;11.38;;;8.20;99.90;;;;;;5049133;28;20036;-87
2022/04/23 04:02:22;;;;;;;13.02;10.52;;;7.70;99.90;;;;;;5048556;28;20040;-88
2022/04/23 04:04:48;;;;;;;13.02;9.93;;;7.70;99.90;;;;;;5046018;28;20140;-87
2022/04/23 04:07:18;;;;;;;13.20;10.82;;;7.70;99.90;;;;;;5048739;28;20036;-87
2022/04/23 04:09:44;;;;;;;12.85;10.18;;;7.60;99.90;;;;;;5042592;28;20101;-87
2022/04/23 04:12:10;;;;;;;14.00;10.63;;;7.70;99.90;;;;;;5047627;28;20032;-88
2022/04/23 04:14:37;;;;;;;11.95;9.95;;;7.60;99.90;;;;;;5046526;28;20029;-87
2022/04/23 04:17:15;;;;;;;11.68;9.77;;;7.60;99.90;;;;;;5071077;28;20059;-88
2022/04/23 04:19:41;;;;;;;12.18;9.90;;;7.60;99.90;;;;;;5058301;28;20087;-87
2022/04/23 04:22:08;;;;;;;12.95;9.70;;;7.60;99.90;;;;;;5046562;28;21710;-86
2022/04/23 04:24:34;;;;;;;11.93;9.57;;;7.60;99.90;;;;;;5036728;28;20040;-88
2022/04/23 04:27:00;;;;;;;12.65;9.63;;;7.60;99.90;;;;;;5054693;28;20076;-87
2022/04/23 04:29:27;;;;;;;11.68;8.90;;;7.60;99.90;;;;;;5034016;28;20122;-88
2022/04/23 04:31:54;;;;;;;11.32;9.43;;;7.60;99.90;;;;;;5016908;28;20062;-87
2022/04/23 04:34:23;;;;;;;13.05;9.60;;;7.60;99.90;;;;;;5042996;28;20117;-87
2022/04/23 04:36:50;;;;;;;10.82;8.80;;;7.60;99.90;;;;;;5063794;28;20060;-88
2022/04/23 04:39:17;;;;;;;13.23;9.60;;;7.60;99.90;;;;;;5044843;28;20460;-87
2022/04/23 04:41:43;;;;;;;11.05;9.27;;;7.50;99.90;;;;;;5040329;28;20044;-87
2022/04/23 04:44:10;;;;;;;12.70;9.63;;;7.50;99.90;;;;;;5063215;28;20040;-87
2022/04/23 04:46:36;;;;;;;12.45;9.10;;;7.50;99.90;;;;;;5063363;28;20462;-88
2022/04/23 04:49:03;;;;;;;13.20;9.65;;;7.50;99.90;;;;;;5030816;28;20052;-88
2022/04/23 04:51:29;;;;;;;11.65;9.07;;;7.60;99.90;;;;;;5046286;28;20105;-87
2022/04/23 04:53:55;;;;;;;12.95;9.82;;;7.60;99.90;;;;;;5028336;28;20044;-87
2022/04/23 04:56:21;;;;;;;12.90;9.35;;;7.60;99.90;;;;;;5064225;28;20619;-87
2022/04/23 04:58:47;;;;;;;12.68;8.75;;;7.80;99.90;;;;;;5048044;28;20124;-88
2022/04/23 05:01:13;;;;;;;11.32;8.88;;;7.60;99.90;;;;;;5047098;28;20690;-88
2022/04/23 05:03:40;;;;;;;10.43;8.30;;;7.70;99.90;;;;;;5045563;28;20144;-88
2022/04/23 05:06:12;;;;;;;11.07;8.38;;;7.70;99.90;;;;;;5046423;28;20043;-88
2022/04/23 05:08:38;;;;;;;11.27;9.15;;;7.90;99.90;;;;;;5063727;28;20084;-87
2022/04/23 05:11:04;;;;;;;12.25;9.23;;;7.80;99.90;;;;;;5061623;28;20563;-87
2022/04/23 05:13:30;;;;;;;11.38;8.55;;;7.80;99.90;;;;;;5047272;28;20117;-87
2022/04/23 05:15:57;;;;;;;11.77;8.95;;;7.80;99.90;;;;;;5060074;28;20064;-87
2022/04/23 05:18:23;;;;;;;11.38;9.07;;;8.00;99.90;;;;;;5046784;28;20044;-88
2022/04/23 05:20:48;;;;;;;11.25;9.13;;;8.00;99.90;;;;;;5046848;28;20064;-87
2022/04/23 05:23:14;;;;;;;13.02;9.30;;;7.90;99.90;;;;;;5062648;28;20065;-87
2022/04/23 05:25:40;;;;;;;11.32;8.95;;;8.00;99.90;;;;;;5046060;28;20040;-87
2022/04/23 05:28:06;;;;;;;11.52;8.82;;;8.10;99.90;;;;;;5048461;28;20037;-87
2022/04/23 05:30:32;;;;;;;10.98;9.32;;;8.20;99.90;;;;;;5033638;28;20052;-86
2022/04/23 05:32:58;;;;;;;11.25;9.85;;;8.20;99.90;;;;;;5049140;28;20062;-87
2022/04/23 05:35:23;;;;;;;13.13;9.18;;;8.30;99.90;;;;;;5031711;28;20040;-87
2022/04/23 05:37:49;;;;;;;13.07;9.90;;;8.30;99.90;;;;;;5034170;28;20489;-87
2022/04/23 05:40:15;;;;;;;13.70;10.00;;;8.40;99.90;;;;;;5032136;28;20036;-87
2022/04/23 05:42:41;;;;;;;10.32;9.18;;;8.70;99.90;;;;;;5029462;28;20591;-87
2022/04/23 05:45:07;;;;;;;11.40;9.88;;;8.40;99.90;;;;;;5072209;28;20116;-87
2022/04/23 05:47:32;;;;;;;12.18;9.85;;;8.50;99.90;;;;;;5087285;28;20048;-86
2022/04/23 05:49:58;;;;;;;13.25;9.52;;;8.60;99.90;;;;;;5058009;28;20036;-87
2022/04/23 05:52:24;;;;;;;12.18;10.40;;;8.60;99.90;;;;;;5054027;28;20052;-87
2022/04/23 05:54:49;;;;;;;11.88;10.10;;;8.70;99.90;;;;;;5020809;28;20070;-87
2022/04/23 05:57:15;;;;;;;13.93;10.10;;;8.80;99.90;;;;;;5022037;28;20050;-87
2022/04/23 05:59:41;;;;;;;15.65;9.98;;;8.80;99.90;;;;;;5051530;28;20042;-87
2022/04/23 06:02:08;;;;;;;14.10;10.00;;;8.80;99.90;;;;;;5036676;28;20036;-87
2022/04/23 06:04:33;;;;;;;14.05;10.75;;;8.90;99.90;;;;;;5051952;28;20052;-87
2022/04/23 06:06:59;;;;;;;14.82;11.02;;;9.00;99.90;;;;;;5036986;28;20028;-87
2022/04/23 06:09:25;;;;;;;13.18;9.98;;;9.10;99.90;;;;;;5020687;28;20051;-87
2022/04/23 06:11:50;;;;;;;13.95;10.95;;;9.10;99.90;;;;;;5050445;28;20036;-87
2022/04/23 06:14:16;;;;;;;14.43;10.55;;;9.20;99.90;;;;;;5036626;28;20478;-87
2022/04/23 06:16:42;;;;;;;13.98;10.85;;;9.20;99.90;;;;;;5020437;28;20036;-87
2022/04/23 06:19:08;;;;;;;14.07;10.18;;;9.30;99.90;;;;;;5052034;28;20123;-87
2022/04/23 06:21:33;;;;;;;12.70;9.98;;;9.40;99.90;;;;;;5053966;28;20046;-87
2022/04/23 06:23:59;;;;;;;13.20;10.02;;;9.40;99.90;;;;;;5035823;28;20091;-87
2022/04/23 06:26:25;;;;;;;11.77;10.27;;;9.50;99.90;;;;;;5034984;28;20225;-88
2022/04/23 06:28:51;;;;;;;14.70;10.55;;;9.50;99.90;;;;;;5036204;28;20083;-86
2022/04/23 06:31:17;;;;;;;14.88;10.50;;;9.60;99.90;;;;;;5037085;28;20064;-86
2022/04/23 06:33:43;;;;;;;12.20;10.18;;;9.60;99.90;;;;;;5050996;28;20036;-87
2022/04/23 06:36:13;;;;;;;16.08;10.27;;;9.80;99.90;;;;;;5064232;28;20027;-86
2022/04/23 06:38:39;;;;;;;13.68;10.68;;;9.80;99.90;;;;;;5063248;28;20032;-87
2022/04/23 06:41:05;;;;;;;13.00;10.93;;;9.90;99.90;;;;;;5054553;28;20039;-87
2022/04/23 06:43:30;;;;;;;12.68;11.07;;;10.00;99.90;;;;;;5053981;28;20039;-87
2022/04/23 06:45:57;;;;;;;14.85;10.40;;;10.10;99.90;;;;;;5033118;28;20070;-88
2022/04/23 06:48:23;;;;;;;14.50;10.27;;;10.20;99.90;;;;;;5047993;28;20040;-87
2022/04/23 06:50:49;;;;;;;13.77;10.60;;;10.20;99.90;;;;;;5036269;28;20043;-87
2022/04/23 06:53:14;;;;;;;13.07;11.13;;;10.30;99.90;;;;;;5052666;28;20043;-87
2022/04/23 06:55:40;;;;;;;14.60;10.60;;;10.40;99.90;;;;;;5036446;28;20059;-86
2022/04/23 06:58:06;;;;;;;11.68;9.73;;;10.50;99.90;;;;;;5034164;28;20047;-87
2022/04/23 07:00:31;;;;;;;13.55;10.63;;;10.60;99.90;;;;;;5034010;28;20043;-87
2022/04/23 07:02:57;;;;;;;15.65;10.77;;;10.70;99.90;;;;;;5035806;28;20036;-88
2022/04/23 07:05:25;;;;;;;14.73;10.45;;;10.80;99.90;;;;;;5035797;28;20063;-87
2022/04/23 07:08:02;;;;;;;14.70;11.70;;;10.90;99.90;;;;;;5076498;28;20020;-88
2022/04/23 07:10:31;;;;;;;14.35;11.50;;;11.10;99.90;;;;;;5066594;28;20040;-87
2022/04/23 07:12:57;;;;;;;16.95;10.55;;;11.20;99.90;;;;;;5075477;28;20055;-88
2022/04/23 07:15:24;;;;;;;15.25;10.35;;;11.40;99.90;;;;;;5046781;28;20371;-88
2022/04/23 07:17:51;;;;;;;12.75;10.13;;;11.60;99.90;;;;;;5065013;28;20066;-88
2022/04/23 07:20:18;;;;;;;11.73;10.18;;;12.40;99.90;;;;;;5054437;28;20043;-88
2022/04/23 07:24:03;;;;;;;14.30;10.77;;;13.00;99.90;;;;;;5070197;28;20509;-88
2022/04/23 07:25:31;;;;;;;14.45;10.35;;;13.80;99.90;;;;;;5055158;28;20087;-87
2022/04/23 07:27:58;;;;;;;10.82;9.70;;;14.20;97.70;;;;;;5019763;28;20448;-87
2022/04/23 07:30:25;;;;;;;23.80;9.90;;;14.50;97.90;;;;;;5035753;28;20130;-87
2022/04/23 07:32:54;;;;;;;12.57;9.65;;;15.00;96.50;;;;;;5032130;28;20154;-88
2022/04/23 07:38:24;;;;;;;13.93;9.23;;;15.60;95.50;;;;;;5066790;28;20042;-86
2022/04/23 07:40:51;;;;;;;11.55;8.32;;;15.70;93.50;;;;;;5049914;28;20107;-86
2022/04/23 07:43:17;;;;;;;16.88;9.07;;;15.70;92.80;;;;;;5071491;28;20115;-85
2022/04/23 07:45:46;;;;;;;11.70;8.85;;;15.70;92.40;;;;;;5047769;28;20036;-84
2022/04/23 07:48:12;;;;;;;11.63;7.63;;;15.60;91.30;;;;;;5068633;28;20082;-85
2022/04/23 07:50:41;;;;;;;10.18;8.25;;;15.60;91.10;;;;;;5034506;28;20047;-86
2022/04/23 07:53:09;;;;;;;10.80;8.63;;;15.80;91.10;;;;;;5047496;28;20039;-86
2022/04/23 07:55:38;;;;;;;9.57;8.38;;;16.00;91.30;;;;;;5050325;28;20039;-86
2022/04/23 07:58:05;;;;;;;13.70;8.70;;;16.00;90.40;;;;;;5051665;28;20069;-86
2022/04/23 08:00:32;;;;;;;16.50;9.23;;;16.00;89.60;;;;;;5036066;28;20636;-87
2022/04/23 08:02:58;;;;;;;12.75;8.50;;;15.70;88.70;;;;;;5053014;28;20024;-88
2022/04/23 08:05:24;;;;;;;11.93;8.30;;;15.90;88.70;;;;;;5064369;28;20086;-85
2022/04/23 08:07:50;;;;;;;11.23;8.52;;;15.80;87.80;;;;;;5050700;28;20472;-85
2022/04/23 08:10:16;;;;;;;12.77;9.10;;;16.00;88.90;;;;;;5052635;28;20042;-86
2022/04/23 08:12:42;;;;;;;46.08;10.60;;;16.30;89.40;;;;;;5066945;28;20038;-85
2022/04/23 08:15:09;;;;;;;11.40;8.60;;;16.30;87.80;;;;;;5051290;28;20047;-86
2022/04/23 08:17:34;;;;;;;12.40;8.45;;;16.20;86.50;;;;;;5084316;28;20538;-86
2022/04/23 08:20:00;;;;;;;12.70;8.85;;;16.30;86.20;;;;;;5051516;28;20134;-86
2022/04/23 08:22:26;;;;;;;10.88;8.80;;;16.30;85.60;;;;;;5068017;28;20036;-87
2022/04/23 08:24:52;;;;;;;13.18;9.30;;;16.40;85.60;;;;;;5051974;28;20539;-87
2022/04/23 08:27:18;;;;;;;40.00;11.23;;;16.40;86.10;;;;;;5050423;28;20085;-88
2022/04/23 08:32:45;;;;;;;21.20;9.68;;;16.50;84.60;;;;;;4989538;28;20163;-88
2022/04/23 08:35:10;;;;;;;15.73;9.52;;;16.50;84.50;;;;;;5023737;28;20119;-85
2022/04/23 08:37:36;;;;;;;12.57;10.05;;;16.40;83.90;;;;;;5050596;28;20496;-84
2022/04/23 08:40:02;;;;;;;13.98;9.50;;;16.30;84.50;;;;;;5067982;28;20117;-85
2022/04/23 08:42:29;;;;;;;10.25;9.15;;;16.20;84.20;;;;;;5051277;28;20416;-84
2022/04/23 08:44:54;;;;;;;11.25;9.23;;;16.30;85.10;;;;;;5068550;28;20055;-84
2022/04/23 08:47:24;;;;;;;11.75;9.43;;;16.50;84.60;;;;;;5053691;28;20050;-84
2022/04/23 08:49:57;;;;;;;12.15;9.82;;;16.40;83.70;;;;;;5068637;28;20044;-84
2022/04/23 08:52:32;;;;;;;13.45;9.30;;;16.40;84.00;;;;;;5053820;28;20032;-85
2022/04/23 08:55:04;;;;;;;11.98;10.15;;;16.50;84.50;;;;;;5052834;28;20059;-85
2022/04/23 08:57:30;;;;;;;14.07;10.52;;;16.70;84.40;;;;;;5049026;28;20041;-85
2022/04/23 08:59:56;;;;;;;12.82;9.70;;;16.70;84.50;;;;;;5066623;28;20131;-84
2022/04/23 09:02:26;;;;;;;11.65;10.07;;;17.00;83.70;;;;;;5066117;28;20044;-84
2022/04/23 09:04:54;;;;;;;11.38;9.85;;;17.40;82.20;;;;;;5055842;28;20055;-84
2022/04/23 09:07:20;;;;;;;11.32;9.27;;;17.20;83.00;;;;;;5070642;28;20040;-85
2022/04/23 09:09:54;;;;;;;14.30;10.45;;;17.40;83.30;;;;;;5033547;28;20093;-84
2022/04/23 09:12:24;;;;;;;12.07;9.20;;;17.70;83.40;;;;;;5071748;28;20067;-85
2022/04/23 09:23:39;;;;;;;16.33;9.35;;;17.50;83.30;;;;;;5054506;28;20036;-85
2022/04/23 09:23:39;;;;;;;10.27;9.27;;;17.50;80.40;;;;;;5074428;28;20043;-84
2022/04/23 09:26:20;;;;;;;11.55;10.32;;;17.50;81.60;;;;;;5043818;28;20047;-83
2022/04/23 09:28:48;;;;;;;10.40;9.32;;;17.50;82.10;;;;;;5058281;28;20051;-84
2022/04/23 09:31:15;;;;;;;12.90;9.70;;;17.60;82.30;;;;;;5058262;28;20040;-84
2022/04/23 09:33:49;;;;;;;12.18;10.02;;;17.70;81.90;;;;;;5040482;28;20036;-84
2022/04/23 09:36:15;;;;;;;11.15;9.65;;;17.60;81.60;;;;;;5041414;28;20031;-84
2022/04/23 09:38:41;;;;;;;14.52;9.90;;;17.70;82.50;;;;;;5057913;28;20457;-84
2022/04/23 09:41:16;;;;;;;13.60;9.68;;;17.70;81.40;;;;;;5075314;28;20048;-84
2022/04/23 09:43:43;;;;;;;11.95;9.68;;;17.50;79.90;;;;;;5058790;28;20036;-84
2022/04/23 09:46:09;;;;;;;19.25;9.70;;;17.60;81.10;;;;;;5075303;28;20074;-84
2022/04/23 09:48:38;;;;;;;13.95;9.10;;;17.60;80.40;;;;;;5083682;28;20040;-84
2022/04/23 09:51:04;;;;;;;10.70;9.55;;;17.60;80.10;;;;;;5058699;28;20108;-84
2022/04/23 09:53:30;;;;;;;10.23;9.15;;;17.60;79.40;;;;;;5071587;28;20063;-84
2022/04/23 09:56:03;;;;;;;11.52;9.27;;;17.70;80.00;;;;;;5058163;28;20650;-84
2022/04/23 09:58:29;;;;;;;12.25;10.20;;;17.70;78.70;;;;;;5073162;28;20393;-84
2022/04/23 10:00:57;;;;;;;11.38;9.05;;;17.70;79.10;;;;;;5073326;28;20070;-84
2022/04/23 10:03:30;;;;;;;11.85;9.50;;;17.80;78.80;;;;;;5056698;28;20043;-84
2022/04/23 10:05:57;;;;;;;10.05;9.00;;;17.60;78.50;;;;;;5072218;28;20051;-84
2022/04/23 10:08:29;;;;;;;40.88;11.52;;;17.40;78.20;;;;;;5053675;28;20040;-84
2022/04/23 10:10:56;;;;;;;;;;;17.50;78.30;;;;;;5041943;28;20039;-84
2022/04/23 10:13:25;;;;;;;10.85;9.15;;;17.50;79.30;;;;;;5042392;28;20282;-84
2022/04/23 10:15:54;;;;;;;21.40;9.57;;;17.50;77.40;;;;;;5081649;28;20032;-84
2022/04/23 10:18:21;;;;;;;13.63;9.60;;;17.60;77.40;;;;;;5076641;28;20048;-84
2022/04/23 10:21:01;;;;;;;11.50;9.25;;;17.50;76.50;;;;;;5041502;28;20032;-84
2022/04/23 10:24:01;;;;;;;10.98;9.13;;;17.60;77.80;;;;;;5046411;28;20040;-83
2022/04/23 10:26:43;;;;;;;10.90;9.77;;;17.50;76.90;;;;;;5063080;28;20081;-84
2022/04/23 10:29:11;;;;;;;10.63;9.13;;;17.40;75.80;;;;;;5072767;28;20083;-85
2022/04/23 10:31:37;;;;;;;10.77;9.35;;;17.60;77.10;;;;;;5071987;28;20040;-85
2022/04/23 10:34:04;;;;;;;10.35;9.23;;;17.50;76.90;;;;;;5053031;28;20132;-84
2022/04/23 10:36:30;;;;;;;11.55;9.73;;;17.50;76.90;;;;;;5056240;28;20036;-85
2022/04/23 10:39:18;;;;;;;9.55;8.40;;;17.60;77.80;;;;;;5067073;28;20064;-85
2022/04/23 10:41:44;;;;;;;14.52;8.98;;;17.70;78.20;;;;;;5098637;28;20040;-82
2022/04/23 10:44:11;;;;;;;12.88;9.00;;;17.90;78.10;;;;;;5096524;28;20408;-82
2022/04/23 10:46:45;;;;;;;13.48;8.60;;;17.90;75.30;;;;;;5067199;28;20044;-90
2022/04/23 10:49:20;;;;;;;11.15;8.82;;;17.90;74.80;;;;;;5074690;28;20044;-85
2022/04/23 10:51:53;;;;;;;12.65;8.48;;;18.00;75.10;;;;;;5050148;28;20036;-88
2022/04/23 10:54:21;;;;;;;11.35;9.10;;;18.20;75.70;;;;;;5052023;28;20417;-87
2022/04/23 10:56:53;;;;;;;13.10;8.43;;;18.30;73.80;;;;;;5053514;28;20044;-89
2022/04/23 10:59:32;;;;;;;;;;;18.50;73.80;;;;;;5041138;28;20043;-89
2022/04/23 11:02:05;;;;;;;12.20;8.75;;;18.50;71.70;;;;;;5056210;28;20373;-91
2022/04/23 11:12:14;;;;;;;17.77;8.80;;;18.70;74.50;;;;;;5037036;28;20040;-91
2022/04/23 11:13:28;;;;;;;12.10;8.43;;;19.20;72.00;;;;;;5054761;28;20051;-91
2022/04/23 11:16:31;;;;;;;17.45;8.57;;;19.00;73.10;;;;;;5052002;28;20286;-91
2022/04/23 11:18:59;;;;;;;15.43;8.57;;;18.70;71.10;;;;;;5069363;28;20771;-92
2022/04/23 11:21:27;;;;;;;14.55;8.10;;;18.50;72.20;;;;;;5069692;28;20032;-91
2022/04/23 11:23:55;;;;;;;11.75;8.45;;;18.40;71.80;;;;;;5071544;28;20042;-93
2022/04/23 11:26:22;;;;;;;9.38;8.13;;;18.40;72.80;;;;;;5056968;28;20464;-92
2022/04/23 11:28:58;;;;;;;11.45;7.35;;;18.40;73.40;;;;;;5039138;28;20055;-93
2022/04/23 11:31:24;;;;;;;11.98;8.13;;;18.60;71.50;;;;;;5058487;28;20036;-93
2022/04/23 11:33:52;;;;;;;13.30;8.38;;;18.50;71.40;;;;;;5055043;28;20115;-88
2022/04/23 11:36:19;;;;;;;11.45;8.77;;;18.60;71.60;;;;;;5039994;28;20118;-86
2022/04/23 11:38:45;;;;;;;12.07;8.73;;;18.50;71.10;;;;;;5053827;28;20054;-88
2022/04/23 11:41:29;;;;;;;9.27;7.88;;;18.40;72.00;;;;;;5056337;28;20489;-88
2022/04/23 11:43:55;;;;;;;8.60;7.70;;;18.60;73.70;;;;;;5068608;28;20080;-87
2022/04/23 11:46:20;;;;;;;11.63;7.85;;;18.70;72.30;;;;;;5052452;28;20063;-90
2022/04/23 11:48:48;;;;;;;11.93;7.50;;;18.80;72.90;;;;;;5036568;28;20067;-89
2022/04/23 11:51:20;;;;;;;13.00;8.27;;;18.80;70.40;;;;;;5054753;28;20032;-89
2022/04/23 11:53:52;;;;;;;9.32;7.90;;;18.60;70.50;;;;;;5055356;28;20115;-88
2022/04/23 11:56:29;;;;;;;10.13;7.82;;;18.70;71.80;;;;;;5067806;28;20478;-88
2022/04/23 11:59:01;;;;;;;11.30;7.95;;;18.80;71.60;;;;;;5061754;28;20036;-89
2022/04/23 12:01:27;;;;;;;10.90;7.68;;;18.80;68.60;;;;;;5061779;28;20118;-89
2022/04/23 12:03:55;;;;;;;8.77;7.90;;;18.80;71.00;;;;;;5052365;28;20090;-89
2022/04/23 12:06:22;;;;;;;9.50;7.82;;;18.80;70.80;;;;;;5053399;28;20047;-88
2022/04/23 12:08:48;;;;;;;9.15;7.25;;;18.90;71.40;;;;;;5036905;28;20040;-89
2022/04/23 12:11:27;;;;;;;17.77;8.30;;;18.90;72.50;;;;;;5052993;28;20046;-89
2022/04/23 12:13:53;;;;;;;8.98;6.80;;;18.90;68.50;;;;;;5052821;28;20032;-90
2022/04/23 12:16:32;;;;;;;11.75;7.00;;;19.00;70.20;;;;;;5067621;28;20127;-89
2022/04/23 12:19:03;;;;;;;12.02;7.63;;;19.00;69.10;;;;;;5043669;28;20044;-90
2022/04/23 12:21:29;;;;;;;8.50;7.07;;;19.00;69.10;;;;;;5036284;28;20124;-88
2022/04/23 12:23:56;;;;;;;9.93;7.30;;;19.10;69.80;;;;;;5080577;28;20028;-89
2022/04/23 12:26:23;;;;;;;46.03;9.38;;;18.80;66.80;;;;;;5061120;28;20051;-90
2022/04/23 12:42:22;;;;;;;9.40;6.90;;;19.20;66.90;;;;;;5045988;28;20048;-89
2022/04/23 12:44:49;;;;;;;15.02;7.13;;;19.20;68.40;;;;;;5055394;28;20040;-86
2022/04/23 12:47:33;;;;;;;8.43;6.43;;;19.00;66.70;;;;;;5069288;28;20036;-88
2022/04/23 12:50:07;;;;;;;14.48;6.47;;;18.90;64.30;;;;;;5060819;28;20043;-88
2022/04/23 12:52:46;;;;;;;9.65;5.65;;;19.00;66.90;;;;;;5049478;28;20028;-86
2022/04/23 12:55:14;;;;;;;12.00;6.28;;;19.10;63.70;;;;;;5059689;28;20075;-89
2022/04/23 12:57:47;;;;;;;8.85;5.57;;;19.20;63.40;;;;;;5066470;28;20036;-89
2022/04/23 13:00:18;;;;;;;15.70;6.22;;;19.30;63.10;;;;;;5068688;28;20043;-88
2022/04/23 13:02:48;;;;;;;10.65;6.53;;;19.40;63.30;;;;;;5049186;28;20093;-88
2022/04/23 13:05:14;;;;;;;8.05;6.40;;;19.20;63.10;;;;;;5071228;28;20044;-88
2022/04/23 13:10:24;;;;;;;14.15;5.78;;;19.50;62.80;;;;;;5055928;28;20036;-89
2022/04/23 13:12:50;;;;;;;12.50;5.68;;;19.50;61.70;;;;;;5055076;28;20032;-88
2022/04/23 13:15:16;;;;;;;6.30;5.50;;;19.60;61.50;;;;;;5039016;28;20036;-88
2022/04/23 13:17:43;;;;;;;9.50;7.60;;;19.70;61.40;;;;;;5068128;28;20028;-88
2022/04/23 13:20:11;;;;;;;6.60;5.95;;;19.70;62.40;;;;;;5081101;28;20047;-87